PWSweather.com
Personal Weather Stations
Station Observations
CALONGE
CalongeES 17251

CalongeES 17251

Lat: 41.85972222, Lon: 3.077777778

Elevation: 16

Station Type: Oregon WMR928N

www.calonge-meteoweb.com

High Low Average
Temperature 59.7°F15.4°C 44.4°F6.9°C 51.7°F10.9°C
Dew Point 37.5°F3.1°C 23.6°F-4.7°C 29.1°F-1.6°C
Winds 12.6 mph 20.3 kmh Calm Calm 7.0 mph W11.3 kmh W
Wind Gusts 31.6 mph50.9 kmh -- 13.0 mph20.9 kmh
Humidity 75% 25% 43%
Pressure 30.30 in1026.1 mb 30.15 in1021.0 mb -
Precipitation 0.00 in0.0 mm - -
Hour Temp Dew Point Humidity Winds Wind Gusts Pressure Precip Precip Rate Daily Precip Total
12:00 AM 44.8°F7.1°C 35.6°F2.0°C 70% Calm Calm -- 30.21 in1023.0 mb 0.00 in0.0 mm 0.00 in0.0 mm 0.00 in0.0 mm
12:15 AM 44.4°F6.9°C 36.0°F2.2°C 72% Calm Calm -- 30.21 in1023.0 mb 0.00 in0.0 mm 0.00 in0.0 mm 0.00 in0.0 mm
12:30 AM 44.6°F7.0°C 37.2°F2.9°C 75% 4.7 mph W7.6 kmh W 7.0 mph11.3 kmh 30.21 in1023.0 mb 0.00 in0.0 mm 0.00 in0.0 mm 0.00 in0.0 mm
12:45 AM 45.3°F7.4°C 37.5°F3.1°C 74% 3.5 mph WNW5.6 kmh WNW 7.6 mph12.2 kmh 30.21 in1023.0 mb 0.00 in0.0 mm 0.00 in0.0 mm 0.00 in0.0 mm
01:00 AM 47.3°F8.5°C 36.1°F2.3°C 65% 2.9 mph NW4.7 kmh NW 10.5 mph16.9 kmh 30.21 in1023.0 mb 0.00 in0.0 mm 0.00 in0.0 mm 0.00 in0.0 mm
01:15 AM 49.6°F9.8°C 32.2°F0.1°C 51% 5.9 mph NNW9.5 kmh NNW 13.8 mph22.2 kmh 30.21 in1023.0 mb 0.00 in0.0 mm 0.00 in0.0 mm 0.00 in0.0 mm
01:30 AM 50.7°F10.4°C 31.7°F-0.2°C 48% 7.0 mph N11.3 kmh N 11.4 mph18.3 kmh 30.21 in1023.0 mb 0.00 in0.0 mm 0.00 in0.0 mm 0.00 in0.0 mm
01:45 AM 51.1°F10.6°C 31.5°F-0.3°C 47% Calm Calm 10.8 mph17.4 kmh 30.21 in1023.0 mb 0.00 in0.0 mm 0.00 in0.0 mm 0.00 in0.0 mm
02:00 AM 51.3°F10.7°C 31.7°F-0.2°C 47% 4.7 mph NW7.6 kmh NW 11.4 mph18.3 kmh 30.21 in1023.0 mb 0.00 in0.0 mm 0.00 in0.0 mm 0.00 in0.0 mm
02:15 AM 51.1°F10.6°C 31.5°F-0.3°C 47% 9.4 mph NW15.1 kmh NW 19.6 mph31.5 kmh 30.21 in1023.0 mb 0.00 in0.0 mm 0.00 in0.0 mm 0.00 in0.0 mm
02:30 AM 50.7°F10.4°C 31.2°F-0.4°C 47% 5.3 mph NW8.5 kmh NW 11.4 mph18.3 kmh 30.21 in1023.0 mb 0.00 in0.0 mm 0.00 in0.0 mm 0.00 in0.0 mm
02:45 AM 50.5°F10.3°C 31.6°F-0.2°C 48% 7.6 mph NNW12.2 kmh NNW 13.8 mph22.2 kmh 30.18 in1022.0 mb 0.00 in0.0 mm 0.00 in0.0 mm 0.00 in0.0 mm
03:00 AM 50.5°F10.3°C 31.6°F-0.2°C 48% 4.7 mph NNW7.6 kmh NNW 14.9 mph24.0 kmh 30.18 in1022.0 mb 0.00 in0.0 mm 0.00 in0.0 mm 0.00 in0.0 mm
03:15 AM 50.4°F10.2°C 31.4°F-0.3°C 48% 8.2 mph NW13.2 kmh NW 13.8 mph22.2 kmh 30.18 in1022.0 mb 0.00 in0.0 mm 0.00 in0.0 mm 0.00 in0.0 mm
03:30 AM 50.2°F10.1°C 31.2°F-0.4°C 48% 6.4 mph NW10.3 kmh NW 13.2 mph21.2 kmh 30.18 in1022.0 mb 0.00 in0.0 mm 0.00 in0.0 mm 0.00 in0.0 mm
03:45 AM 50.2°F10.1°C 31.2°F-0.4°C 48% Calm Calm 10.8 mph17.4 kmh 30.18 in1022.0 mb 0.00 in0.0 mm 0.00 in0.0 mm 0.00 in0.0 mm
04:00 AM 50.0°F10.0°C 31.6°F-0.2°C 49% 8.8 mph NW14.2 kmh NW 10.8 mph17.4 kmh 30.18 in1022.0 mb 0.00 in0.0 mm 0.00 in0.0 mm 0.00 in0.0 mm
04:15 AM 49.6°F9.8°C 31.2°F-0.4°C 49% 6.4 mph NW10.3 kmh NW 12.6 mph20.3 kmh 30.18 in1022.0 mb 0.00 in0.0 mm 0.00 in0.0 mm 0.00 in0.0 mm
04:30 AM 49.6°F9.8°C 31.2°F-0.4°C 49% 7.0 mph NW11.3 kmh NW 11.4 mph18.3 kmh 30.15 in1021.0 mb 0.00 in0.0 mm 0.00 in0.0 mm 0.00 in0.0 mm
04:45 AM 49.5°F9.7°C 31.1°F-0.5°C 49% 7.0 mph NW11.3 kmh NW 10.0 mph16.1 kmh 30.15 in1021.0 mb 0.00 in0.0 mm 0.00 in0.0 mm 0.00 in0.0 mm
05:00 AM 49.3°F9.6°C 31.4°F-0.3°C 50% 5.9 mph WNW9.5 kmh WNW 13.8 mph22.2 kmh 30.15 in1021.0 mb 0.00 in0.0 mm 0.00 in0.0 mm 0.00 in0.0 mm
05:15 AM 49.1°F9.5°C 32.7°F0.4°C 53% 7.6 mph NW12.2 kmh NW 11.4 mph18.3 kmh 30.15 in1021.0 mb 0.00 in0.0 mm 0.00 in0.0 mm 0.00 in0.0 mm
05:30 AM 48.7°F9.3°C 32.8°F0.4°C 54% 4.7 mph NW7.6 kmh NW 11.4 mph18.3 kmh 30.15 in1021.0 mb 0.00 in0.0 mm 0.00 in0.0 mm 0.00 in0.0 mm
05:45 AM 48.9°F9.4°C 31.6°F-0.2°C 51% 6.4 mph NW10.3 kmh NW 10.0 mph16.1 kmh 30.15 in1021.0 mb 0.00 in0.0 mm 0.00 in0.0 mm 0.00 in0.0 mm
06:00 AM 48.7°F9.3°C 30.9°F-0.6°C 50% 7.0 mph NW11.3 kmh NW 10.0 mph16.1 kmh 30.15 in1021.0 mb 0.00 in0.0 mm 0.00 in0.0 mm 0.00 in0.0 mm
06:15 AM 48.6°F9.2°C 30.7°F-0.7°C 50% 7.6 mph NW12.2 kmh NW 11.4 mph18.3 kmh 30.15 in1021.0 mb 0.00 in0.0 mm 0.00 in0.0 mm 0.00 in0.0 mm
06:30 AM 48.4°F9.1°C 31.1°F-0.5°C 51% 7.6 mph NW12.2 kmh NW 10.8 mph17.4 kmh 30.15 in1021.0 mb 0.00 in0.0 mm 0.00 in0.0 mm 0.00 in0.0 mm
06:45 AM 48.4°F9.1°C 31.1°F-0.5°C 51% 5.3 mph NW8.5 kmh NW 10.5 mph16.9 kmh 30.15 in1021.0 mb 0.00 in0.0 mm 0.00 in0.0 mm 0.00 in0.0 mm
07:00 AM 48.0°F8.9°C 31.2°F-0.4°C 52% Calm Calm 6.4 mph10.3 kmh 30.15 in1021.0 mb 0.00 in0.0 mm 0.00 in0.0 mm 0.00 in0.0 mm
07:15 AM 47.8°F8.8°C 31.5°F-0.3°C 53% 4.7 mph NW7.6 kmh NW 8.2 mph13.2 kmh 30.15 in1021.0 mb 0.00 in0.0 mm 0.00 in0.0 mm 0.00 in0.0 mm
07:30 AM 47.7°F8.7°C 31.4°F-0.3°C 53% Calm Calm 8.2 mph13.2 kmh 30.15 in1021.0 mb 0.00 in0.0 mm 0.00 in0.0 mm 0.00 in0.0 mm
07:45 AM 47.8°F8.8°C 31.0°F-0.6°C 52% Calm Calm 7.6 mph12.2 kmh 30.15 in1021.0 mb 0.00 in0.0 mm 0.00 in0.0 mm 0.00 in0.0 mm
08:00 AM 48.4°F9.1°C 30.6°F-0.8°C 50% 5.9 mph NW9.5 kmh NW 10.0 mph16.1 kmh 30.15 in1021.0 mb 0.00 in0.0 mm 0.00 in0.0 mm 0.00 in0.0 mm
08:15 AM 49.1°F9.5°C 30.2°F-1.0°C 48% 10.8 mph NW17.4 kmh NW 14.9 mph24.0 kmh 30.15 in1021.0 mb 0.00 in0.0 mm 0.00 in0.0 mm 0.00 in0.0 mm
08:30 AM 49.8°F9.9°C 30.9°F-0.6°C 48% 8.2 mph NW13.2 kmh NW 14.4 mph23.2 kmh 30.15 in1021.0 mb 0.00 in0.0 mm 0.00 in0.0 mm 0.00 in0.0 mm
08:45 AM 50.5°F10.3°C 30.5°F-0.8°C 46% 12.0 mph NW19.3 kmh NW 16.7 mph26.9 kmh 30.18 in1022.0 mb 0.00 in0.0 mm 0.00 in0.0 mm 0.00 in0.0 mm
09:00 AM 51.4°F10.8°C 30.2°F-1.0°C 44% 9.4 mph NW15.1 kmh NW 14.4 mph23.2 kmh 30.18 in1022.0 mb 0.00 in0.0 mm 0.00 in0.0 mm 0.00 in0.0 mm
09:15 AM 52.7°F11.5°C 30.2°F-1.0°C 42% 6.4 mph NW10.3 kmh NW 14.4 mph23.2 kmh 30.18 in1022.0 mb 0.00 in0.0 mm 0.00 in0.0 mm 0.00 in0.0 mm
09:30 AM 53.4°F11.9°C 29.7°F-1.3°C 40% 8.2 mph NW13.2 kmh NW 15.5 mph24.9 kmh 30.18 in1022.0 mb 0.00 in0.0 mm 0.00 in0.0 mm 0.00 in0.0 mm
09:45 AM 55.0°F12.8°C 28.5°F-1.9°C 36% 7.6 mph N12.2 kmh N 17.3 mph27.8 kmh 30.18 in1022.0 mb 0.00 in0.0 mm 0.00 in0.0 mm 0.00 in0.0 mm
10:00 AM 55.9°F13.3°C 28.7°F-1.8°C 35% 10.8 mph NNW17.4 kmh NNW 19.0 mph30.6 kmh 30.18 in1022.0 mb 0.00 in0.0 mm 0.00 in0.0 mm 0.00 in0.0 mm
10:15 AM 56.1°F13.4°C 28.1°F-2.2°C 34% 10.0 mph N16.1 kmh N 20.2 mph32.5 kmh 30.15 in1021.0 mb 0.00 in0.0 mm 0.00 in0.0 mm 0.00 in0.0 mm
10:30 AM 56.8°F13.8°C 27.3°F-2.6°C 32% 8.2 mph N13.2 kmh N 21.4 mph34.4 kmh 30.15 in1021.0 mb 0.00 in0.0 mm 0.00 in0.0 mm 0.00 in0.0 mm
10:45 AM 57.2°F14.0°C 27.6°F-2.4°C 32% 10.0 mph N16.1 kmh N 22.9 mph36.9 kmh 30.15 in1021.0 mb 0.00 in0.0 mm 0.00 in0.0 mm 0.00 in0.0 mm
11:00 AM 57.4°F14.1°C 27.0°F-2.8°C 31% 12.6 mph N20.3 kmh N 31.6 mph50.9 kmh 30.15 in1021.0 mb 0.00 in0.0 mm 0.00 in0.0 mm 0.00 in0.0 mm
11:15 AM 57.6°F14.2°C 27.1°F-2.7°C 31% 12.6 mph N20.3 kmh N 28.7 mph46.2 kmh 30.18 in1022.0 mb 0.00 in0.0 mm 0.00 in0.0 mm 0.00 in0.0 mm
11:30 AM 57.7°F14.3°C 28.0°F-2.2°C 32% 6.4 mph N10.3 kmh N 19.6 mph31.5 kmh 30.18 in1022.0 mb 0.00 in0.0 mm 0.00 in0.0 mm 0.00 in0.0 mm
11:45 AM 57.9°F14.4°C 26.6°F-3.0°C 30% 9.4 mph N15.1 kmh N 29.3 mph47.2 kmh 30.18 in1022.0 mb 0.00 in0.0 mm 0.00 in0.0 mm 0.00 in0.0 mm
02:15 PM 59.7°F15.4°C 24.7°F-4.1°C 26% 10.5 mph N16.9 kmh N 22.0 mph35.4 kmh 30.18 in1022.0 mb 0.00 in0.0 mm 0.00 in0.0 mm 0.00 in0.0 mm
02:30 PM 59.5°F15.3°C 23.6°F-4.7°C 25% 12.6 mph N20.3 kmh N 24.0 mph38.6 kmh 30.18 in1022.0 mb 0.00 in0.0 mm 0.00 in0.0 mm 0.00 in0.0 mm
05:45 PM 58.1°F14.5°C 25.1°F-3.8°C 28% 8.2 mph N13.2 kmh N 11.4 mph18.3 kmh 30.21 in1023.0 mb 0.00 in0.0 mm 0.00 in0.0 mm 0.00 in0.0 mm
06:00 PM 57.6°F14.2°C 25.5°F-3.6°C 29% 10.0 mph NNE16.1 kmh NNE 17.3 mph27.8 kmh 30.21 in1023.0 mb 0.00 in0.0 mm 0.00 in0.0 mm 0.00 in0.0 mm
06:15 PM 56.7°F13.7°C 25.5°F-3.6°C 30% 5.3 mph NW8.5 kmh NW 14.9 mph24.0 kmh 30.21 in1023.0 mb 0.00 in0.0 mm 0.00 in0.0 mm 0.00 in0.0 mm
06:30 PM 55.9°F13.3°C 25.7°F-3.5°C 31% 7.6 mph NNW12.2 kmh NNW 17.3 mph27.8 kmh 30.18 in1022.0 mb 0.00 in0.0 mm 0.00 in0.0 mm 0.00 in0.0 mm
06:45 PM 55.4°F13.0°C 26.0°F-3.3°C 32% 4.7 mph N7.6 kmh N 8.2 mph13.2 kmh 30.21 in1023.0 mb 0.00 in0.0 mm 0.00 in0.0 mm 0.00 in0.0 mm
07:00 PM 54.7°F12.6°C 26.1°F-3.3°C 33% 7.0 mph N11.3 kmh N 13.2 mph21.2 kmh 30.21 in1023.0 mb 0.00 in0.0 mm 0.00 in0.0 mm 0.00 in0.0 mm
07:15 PM 54.1°F12.3°C 24.9°F-3.9°C 32% 12.6 mph N20.3 kmh N 14.4 mph23.2 kmh 30.24 in1024.0 mb 0.00 in0.0 mm 0.00 in0.0 mm 0.00 in0.0 mm
07:30 PM 54.0°F12.2°C 26.2°F-3.2°C 34% 10.0 mph NNW16.1 kmh NNW 16.7 mph26.9 kmh 30.24 in1024.0 mb 0.00 in0.0 mm 0.00 in0.0 mm 0.00 in0.0 mm
07:45 PM 53.6°F12.0°C 26.6°F-3.0°C 35% 4.1 mph N6.6 kmh N 13.8 mph22.2 kmh 30.24 in1024.0 mb 0.00 in0.0 mm 0.00 in0.0 mm 0.00 in0.0 mm
08:00 PM 53.1°F11.7°C 26.8°F-2.9°C 36% 6.4 mph NW10.3 kmh NW 9.4 mph15.1 kmh 30.24 in1024.0 mb 0.00 in0.0 mm 0.00 in0.0 mm 0.00 in0.0 mm
08:15 PM 52.9°F11.6°C 26.6°F-3.0°C 36% 7.6 mph N12.2 kmh N 16.1 mph25.9 kmh 30.24 in1024.0 mb 0.00 in0.0 mm 0.00 in0.0 mm 0.00 in0.0 mm
08:30 PM 52.5°F11.4°C 26.3°F-3.2°C 36% 6.4 mph N10.3 kmh N 10.8 mph17.4 kmh 30.24 in1024.0 mb 0.00 in0.0 mm 0.00 in0.0 mm 0.00 in0.0 mm
08:45 PM 52.3°F11.3°C 26.1°F-3.3°C 36% 5.3 mph N8.5 kmh N 14.9 mph24.0 kmh 30.24 in1024.0 mb 0.00 in0.0 mm 0.00 in0.0 mm 0.00 in0.0 mm
09:00 PM 52.0°F11.1°C 25.8°F-3.4°C 36% 4.1 mph N6.6 kmh N 10.5 mph16.9 kmh 30.27 in1025.1 mb 0.00 in0.0 mm 0.00 in0.0 mm 0.00 in0.0 mm
09:15 PM 51.8°F11.0°C 25.7°F-3.5°C 36% 6.4 mph NNW10.3 kmh NNW 10.5 mph16.9 kmh 30.27 in1025.1 mb 0.00 in0.0 mm 0.00 in0.0 mm 0.00 in0.0 mm
09:30 PM 52.0°F11.1°C 25.8°F-3.4°C 36% 10.0 mph NW16.1 kmh NW 16.7 mph26.9 kmh 30.27 in1025.1 mb 0.00 in0.0 mm 0.00 in0.0 mm 0.00 in0.0 mm
09:45 PM 51.8°F11.0°C 25.7°F-3.5°C 36% 4.1 mph NW6.6 kmh NW 10.0 mph16.1 kmh 30.27 in1025.1 mb 0.00 in0.0 mm 0.00 in0.0 mm 0.00 in0.0 mm
10:00 PM 51.8°F11.0°C 25.7°F-3.5°C 36% 5.9 mph NW9.5 kmh NW 11.4 mph18.3 kmh 30.27 in1025.1 mb 0.00 in0.0 mm 0.00 in0.0 mm 0.00 in0.0 mm
10:15 PM 51.8°F11.0°C 25.0°F-3.9°C 35% 4.7 mph NW7.6 kmh NW 13.2 mph21.2 kmh 30.27 in1025.1 mb 0.00 in0.0 mm 0.00 in0.0 mm 0.00 in0.0 mm
10:30 PM 51.8°F11.0°C 24.3°F-4.3°C 34% 4.1 mph NNW6.6 kmh NNW 7.0 mph11.3 kmh 30.27 in1025.1 mb 0.00 in0.0 mm 0.00 in0.0 mm 0.00 in0.0 mm
10:45 PM 51.8°F11.0°C 24.3°F-4.3°C 34% 6.4 mph NW10.3 kmh NW 8.2 mph13.2 kmh 30.30 in1026.1 mb 0.00 in0.0 mm 0.00 in0.0 mm 0.00 in0.0 mm
11:00 PM 51.4°F10.8°C 24.7°F-4.1°C 35% 5.9 mph NW9.5 kmh NW 10.0 mph16.1 kmh 30.30 in1026.1 mb 0.00 in0.0 mm 0.00 in0.0 mm 0.00 in0.0 mm
11:15 PM 51.1°F10.6°C 25.0°F-3.9°C 36% 5.9 mph NW9.5 kmh NW 8.2 mph13.2 kmh 30.30 in1026.1 mb 0.00 in0.0 mm 0.00 in0.0 mm 0.00 in0.0 mm
11:30 PM 50.9°F10.5°C 24.9°F-3.9°C 36% 5.3 mph NNW8.5 kmh NNW 9.4 mph15.1 kmh 30.30 in1026.1 mb 0.00 in0.0 mm 0.00 in0.0 mm 0.00 in0.0 mm
11:45 PM 50.9°F10.5°C 24.9°F-3.9°C 36% 5.3 mph NW8.5 kmh NW 8.2 mph13.2 kmh 30.30 in1026.1 mb 0.00 in0.0 mm 0.00 in0.0 mm 0.00 in0.0 mm